Time;durP1;ratioP1;P1;durP2;ratioP2;P2;SDS_P1;SDS_P2;PMS_P1;PMS_P2;Temp;Humidity;BMP_temperature;BMP_pressure;BME280_temperature;BME280_humidity;BME280_pressure;Samples;Min_cycle;Max_cycle;Signal;HPM_P1;HPM_P2
2021/04/25 00:01:46;;;;;;;11.47;4.93;;;;;;;5.73;50.81;99548.69;114057;1195;64430;-79
2021/04/25 00:04:15;;;;;;;20.53;5.33;;;;;;;5.68;50.38;99544.44;114112;1196;64426;-80
2021/04/25 00:06:43;;;;;;;15.13;5.40;;;;;;;5.67;50.45;99548.02;113892;1196;64409;-85
2021/04/25 00:09:10;;;;;;;8.37;4.90;;;;;;;5.62;50.40;99542.05;114214;1196;65962;-82
2021/04/25 00:11:37;;;;;;;13.73;4.63;;;;;;;5.60;50.95;99535.12;114082;1196;64366;-80
2021/04/25 00:14:04;;;;;;;10.85;5.30;;;;;;;5.60;50.24;99535.97;114109;1196;64365;-83
2021/04/25 00:16:32;;;;;;;14.43;5.90;;;;;;;5.61;50.68;99527.09;114116;1196;65859;-81
2021/04/25 00:18:59;;;;;;;12.33;4.97;;;;;;;5.63;50.74;99530.52;114137;1196;64340;-81
2021/04/25 00:21:26;;;;;;;13.50;4.95;;;;;;;5.64;50.32;99526.94;114113;1195;64413;-79
2021/04/25 00:23:55;;;;;;;10.20;5.13;;;;;;;5.63;50.09;99529.66;114122;1196;65514;-86
2021/04/25 00:26:21;;;;;;;11.63;5.50;;;;;;;5.60;50.73;99513.92;114091;1196;64388;-86
2021/04/25 00:28:48;;;;;;;11.20;5.00;;;;;;;5.54;50.66;99523.00;114029;1196;64557;-79
2021/04/25 00:31:14;;;;;;;14.00;5.50;;;;;;;5.53;50.47;99512.44;114142;1196;64391;-79
2021/04/25 00:33:41;;;;;;;14.17;4.87;;;;;;;5.49;50.59;99519.69;114113;1196;64388;-84
2021/04/25 00:36:07;;;;;;;13.13;5.60;;;;;;;5.44;50.74;99516.37;114050;1196;64388;-80
2021/04/25 00:38:34;;;;;;;12.65;5.70;;;;;;;5.42;51.34;99511.14;114075;1196;64432;-83
2021/04/25 00:41:01;;;;;;;11.13;5.17;;;;;;;5.43;50.79;99512.00;114012;1196;64516;-80
2021/04/25 00:43:27;;;;;;;12.87;5.30;;;;;;;5.43;50.78;99509.36;114032;1196;64458;-80
2021/04/25 00:45:54;;;;;;;12.43;5.40;;;;;;;5.46;51.00;99509.20;114047;1196;64360;-84
2021/04/25 00:48:22;;;;;;;10.73;5.20;;;;;;;5.49;50.46;99501.14;114085;1196;64474;-84
2021/04/25 00:50:49;;;;;;;8.83;4.73;;;;;;;5.54;50.76;99508.89;114167;1196;64365;-79
2021/04/25 00:53:16;;;;;;;8.37;4.60;;;;;;;5.56;50.71;99509.67;113972;1195;64368;-81
2021/04/25 00:55:46;;;;;;;8.57;4.70;;;;;;;5.56;50.58;99507.88;114118;1196;64433;-79
2021/04/25 00:58:12;;;;;;;12.05;4.70;;;;;;;5.54;51.01;99501.80;114177;1196;64394;-80
2021/04/25 01:00:39;;;;;;;12.17;5.47;;;;;;;5.53;50.48;99508.00;114120;1196;64524;-84
2021/04/25 01:03:06;;;;;;;11.70;6.20;;;;;;;5.53;50.88;99505.35;114140;1196;64307;-79
2021/04/25 01:05:32;;;;;;;11.07;5.33;;;;;;;5.54;50.59;99504.45;114145;1196;64470;-80
2021/04/25 01:07:59;;;;;;;12.30;5.27;;;;;;;5.53;50.55;99505.35;114118;1196;64359;-79
2021/04/25 01:10:27;;;;;;;11.20;5.90;;;;;;;5.53;50.85;99505.35;114100;1196;65594;-79
2021/04/25 01:12:55;;;;;;;13.70;6.05;;;;;;;5.52;51.08;99495.69;114165;1196;64937;-84
2021/04/25 01:15:22;;;;;;;14.13;6.30;;;;;;;5.49;50.94;99503.79;114147;1196;64455;-84
2021/04/25 01:17:50;;;;;;;12.53;5.20;;;;;;;5.50;51.23;99502.86;114145;1196;64347;-79
2021/04/25 01:20:19;;;;;;;11.47;5.57;;;;;;;5.50;51.16;99502.86;114126;1196;64347;-80
2021/04/25 01:22:46;;;;;;;13.10;6.20;;;;;;;5.50;50.71;99502.86;114129;1196;64366;-80
2021/04/25 01:25:16;;;;;;;11.93;6.23;;;;;;;5.47;51.10;99500.36;114055;1196;64480;-81
2021/04/25 01:27:43;;;;;;;13.10;5.83;;;;;;;5.45;51.16;99499.55;114130;1196;64312;-84
2021/04/25 01:30:13;;;;;;;10.37;5.50;;;;;;;5.42;50.89;99505.84;114052;1196;64531;-81
2021/04/25 01:32:42;;;;;;;13.93;5.83;;;;;;;5.39;51.46;99492.72;114162;1196;64388;-85
2021/04/25 01:35:14;;;;;;;11.07;5.63;;;;;;;5.36;51.19;99490.22;114099;1196;64253;-81
2021/04/25 01:37:41;;;;;;;14.55;5.25;;;;;;;5.36;51.40;99497.31;114204;1196;64314;-81
2021/04/25 01:40:09;;;;;;;13.27;5.73;;;;;;;5.34;51.28;99502.69;114083;1195;64828;-80
2021/04/25 01:42:35;;;;;;;14.50;6.10;;;;;;;5.29;51.71;99507.31;114146;1196;64388;-80
2021/04/25 01:45:04;;;;;;;13.23;5.77;;;;;;;5.24;51.62;99497.84;114124;1196;64375;-81
2021/04/25 01:47:30;;;;;;;12.90;6.35;;;;;;;5.19;51.64;99502.47;114088;1196;64475;-83
2021/04/25 01:49:57;;;;;;;12.93;5.50;;;;;;;5.15;51.58;99499.97;114137;1195;64446;-79
2021/04/25 01:52:23;;;;;;;12.53;6.20;;;;;;;5.10;51.51;99498.44;114060;1196;65969;-81
2021/04/25 01:54:50;;;;;;;15.80;6.55;;;;;;;5.06;51.48;99507.42;114152;1196;64438;-81
2021/04/25 01:57:16;;;;;;;17.33;7.27;;;;;;;5.02;51.79;99505.83;114087;1196;64455;-80
2021/04/25 01:59:42;;;;;;;14.00;7.13;;;;;;;4.99;52.04;99492.73;114141;1196;64343;-83
2021/04/25 02:02:09;;;;;;;11.90;6.48;;;;;;;4.96;52.28;99490.20;114097;1196;64372;-81
2021/04/25 02:04:36;;;;;;;14.95;6.50;;;;;;;4.92;52.29;99488.63;114108;1196;64478;-80
2021/04/25 02:07:02;;;;;;;15.50;7.40;;;;;;;4.89;52.10;99485.16;114096;1196;64419;-81
2021/04/25 02:09:29;;;;;;;16.37;7.50;;;;;;;4.85;51.92;99491.53;114059;1196;64423;-82
2021/04/25 02:11:55;;;;;;;14.87;6.83;;;;;;;4.82;52.40;99490.78;114114;1196;64387;-79
2021/04/25 02:14:22;;;;;;;23.43;8.20;;;;;;;4.81;52.01;99486.42;114081;1196;64342;-85
2021/04/25 02:16:48;;;;;;;15.70;7.07;;;;;;;4.83;52.11;99484.56;114182;1196;64330;-80
2021/04/25 02:19:15;;;;;;;14.50;6.65;;;;;;;4.81;51.91;99484.64;114086;1196;64372;-81
2021/04/25 02:21:41;;;;;;;18.40;7.27;;;;;;;4.81;52.48;99484.64;114098;1196;64474;-80
2021/04/25 02:24:08;;;;;;;18.70;6.75;;;;;;;4.80;52.48;99479.41;114090;1196;64365;-80
2021/04/25 02:26:35;;;;;;;14.73;7.23;;;;;;;4.80;52.40;99482.92;114166;1196;64465;-80
2021/04/25 02:29:02;;;;;;;16.77;7.13;;;;;;;4.79;52.42;99480.34;114112;1196;64359;-85
2021/04/25 02:31:28;;;;;;;16.03;7.07;;;;;;;4.81;52.36;99486.42;114094;1196;64295;-80
2021/04/25 02:33:54;;;;;;;19.60;7.20;;;;;;;4.78;52.67;99482.13;114082;1196;64306;-82
2021/04/25 02:36:21;;;;;;;16.95;6.80;;;;;;;4.77;52.85;99490.11;114061;1196;64356;-83
2021/04/25 02:38:48;;;;;;;16.70;7.10;;;;;;;4.75;52.81;99481.39;114203;1196;64473;-81
2021/04/25 02:41:14;;;;;;;15.00;7.37;;;;;;;4.73;52.87;99473.52;114169;1196;64417;-83
2021/04/25 02:43:41;;;;;;;17.40;7.13;;;;;;;4.71;52.54;99475.38;114105;1196;64602;-81
2021/04/25 02:46:08;;;;;;;15.33;7.13;;;;;;;4.71;52.74;99472.73;114124;1196;64752;-81
2021/04/25 02:48:35;;;;;;;14.07;6.47;;;;;;;4.73;53.04;99483.25;114124;1196;64476;-79
2021/04/25 02:51:01;;;;;;;20.75;8.45;;;;;;;4.74;52.85;99477.02;114120;1196;64430;-82
2021/04/25 02:53:28;;;;;;;14.90;7.40;;;;;;;4.74;53.32;99472.59;114124;1196;64512;-82
2021/04/25 02:55:54;;;;;;;17.67;7.87;;;;;;;4.72;53.28;99474.45;114137;1196;64525;-81
2021/04/25 02:58:21;;;;;;;14.97;6.63;;;;;;;4.71;53.58;99475.38;114028;1196;64390;-81
2021/04/25 03:00:47;;;;;;;15.40;7.60;;;;;;;4.69;53.06;99477.20;114046;1196;64467;-81
2021/04/25 03:03:14;;;;;;;15.75;7.00;;;;;;;4.66;52.95;99474.70;114156;1195;64839;-80
2021/04/25 03:05:40;;;;;;;16.67;8.10;;;;;;;4.65;53.00;99467.70;114152;1196;64346;-83
2021/04/25 03:08:07;;;;;;;15.37;8.40;;;;;;;4.62;53.19;99470.45;114059;1196;64542;-80
2021/04/25 03:10:33;;;;;;;20.13;8.20;;;;;;;4.59;53.65;99475.88;114133;1196;64548;-79
2021/04/25 03:13:00;;;;;;;15.97;7.70;;;;;;;4.56;53.43;99475.98;114105;1195;64395;-79
2021/04/25 03:15:26;;;;;;;17.80;8.03;;;;;;;4.56;53.29;99487.43;114185;1195;64369;-79
2021/04/25 03:17:53;;;;;;;17.60;7.90;;;;;;;4.57;53.36;99483.00;114191;1196;64372;-81
2021/04/25 03:20:22;;;;;;;18.00;7.88;;;;;;;4.55;53.66;99469.84;114228;1196;64375;-80
2021/04/25 03:22:50;;;;;;;18.70;8.17;;;;;;;4.57;53.43;99467.13;114188;1196;64429;-79
2021/04/25 03:25:17;;;;;;;20.70;7.30;;;;;;;4.58;53.67;99469.73;114087;1196;64372;-79
2021/04/25 03:27:43;;;;;;;20.77;7.87;;;;;;;4.58;53.64;99482.07;114153;1196;64350;-80
2021/04/25 03:30:13;;;;;;;18.27;7.73;;;;;;;4.59;53.66;99489.11;114128;1196;64420;-83
2021/04/25 03:32:41;;;;;;;16.05;7.95;;;;;;;4.60;53.91;99488.18;114122;1196;64302;-80
2021/04/25 03:35:09;;;;;;;15.87;8.23;;;;;;;4.61;53.62;99495.19;114063;1196;64391;-79
2021/04/25 03:37:37;;;;;;;20.15;8.25;;;;;;;4.59;53.86;99492.61;114195;1196;64397;-81
2021/04/25 03:40:06;;;;;;;18.10;8.50;;;;;;;4.58;53.93;99498.83;114013;1196;64353;-83
2021/04/25 03:42:33;;;;;;;16.50;8.70;;;;;;;4.55;54.14;99496.30;114193;1196;64388;-80
2021/04/25 03:44:59;;;;;;;21.87;9.33;;;;;;;4.51;53.94;99489.39;114068;1196;64624;-83
2021/04/25 03:47:26;;;;;;;22.97;9.50;;;;;;;4.47;54.09;99495.75;114174;1194;64298;-80
2021/04/25 03:49:53;;;;;;;20.40;9.00;;;;;;;4.43;54.48;99491.50;114123;1196;64362;-79
2021/04/25 03:52:19;;;;;;;22.70;8.77;;;;;;;4.42;54.04;99495.06;114103;1196;64449;-80
2021/04/25 03:54:46;;;;;;;23.10;9.75;;;;;;;4.39;54.17;99500.49;114153;1196;64327;-80
2021/04/25 03:57:12;;;;;;;18.57;8.27;;;;;;;4.37;54.41;99496.17;114103;1196;64537;-79
2021/04/25 03:59:38;;;;;;;30.37;10.67;;;;;;;4.34;54.13;99497.16;114089;1196;64404;-79
2021/04/25 04:02:05;;;;;;;18.40;8.50;;;;;;;4.36;54.46;99497.09;114113;1196;64461;-78
2021/04/25 04:04:31;;;;;;;21.70;9.30;;;;;;;4.36;54.25;99497.95;114131;1196;64401;-79
2021/04/25 04:06:58;;;;;;;22.70;9.37;;;;;;;4.41;54.56;99503.92;114073;1196;64340;-81
2021/04/25 04:09:25;;;;;;;32.68;10.00;;;;;;;4.44;54.40;99503.79;113888;1196;64484;-84
2021/04/25 04:11:51;;;;;;;28.23;11.00;;;;;;;4.46;54.46;99509.05;114124;1196;64343;-79
2021/04/25 04:14:17;;;;;;;38.70;12.17;;;;;;;4.46;54.54;99504.61;114146;1196;64819;-81
2021/04/25 04:16:44;;;;;;;28.85;11.55;;;;;;;4.48;54.76;99513.33;114132;1196;64378;-80
2021/04/25 04:19:11;;;;;;;30.50;10.25;;;;;;;4.47;54.28;99508.97;113881;1196;64387;-83
2021/04/25 04:21:37;;;;;;;38.30;11.53;;;;;;;4.46;54.35;99509.91;114003;1196;64531;-83
2021/04/25 04:24:04;;;;;;;29.90;10.57;;;;;;;4.45;54.44;99509.94;114048;1196;64390;-80
2021/04/25 04:26:31;;;;;;;20.05;9.40;;;;;;;4.42;54.63;99510.08;114109;1196;64433;-79
2021/04/25 04:28:57;;;;;;;19.73;9.03;;;;;;;4.42;54.47;99515.36;114135;1196;64359;-79
2021/04/25 04:31:24;;;;;;;23.70;10.20;;;;;;;4.42;54.39;99516.22;114046;1196;62474;-85
2021/04/25 04:33:50;;;;;;;22.70;9.20;;;;;;;4.44;54.77;99516.16;114081;1196;64532;-84
2021/04/25 04:36:17;;;;;;;23.83;9.48;;;;;;;4.48;54.50;99501.90;114063;1195;64436;-83
2021/04/25 04:38:43;;;;;;;26.75;11.15;;;;;;;4.52;54.74;99512.30;114093;1195;64449;-80
2021/04/25 04:41:10;;;;;;;26.25;9.90;;;;;;;4.53;55.01;99514.02;114164;1196;64430;-79
2021/04/25 04:43:36;;;;;;;30.23;10.27;;;;;;;4.55;54.76;99513.95;114098;1196;64445;-80
2021/04/25 04:46:03;;;;;;;26.95;10.95;;;;;;;4.57;54.86;99520.89;114055;1196;64519;-78
2021/04/25 04:48:29;;;;;;;25.63;10.87;;;;;;;4.61;54.39;99525.14;114170;1196;64384;-79
2021/04/25 04:50:55;;;;;;;27.05;9.35;;;;;;;4.64;54.71;99521.50;114122;1196;64436;-80
2021/04/25 04:53:22;;;;;;;26.25;10.65;;;;;;;4.67;55.15;99513.45;114087;1196;64314;-83
2021/04/25 04:55:49;;;;;;;36.50;11.07;;;;;;;4.72;54.75;99534.44;114153;1195;64483;-79
2021/04/25 04:58:15;;;;;;;27.93;9.77;;;;;;;4.77;54.49;99528.05;114150;1196;64468;-79
2021/04/25 05:00:41;;;;;;;30.03;10.43;;;;;;;4.83;54.58;99522.47;114075;1196;64364;-79
2021/04/25 05:03:08;;;;;;;22.20;8.20;;;;;;;4.91;54.53;99522.18;114033;1196;64381;-81
2021/04/25 05:05:34;;;;;;;26.55;8.90;;;;;;;4.96;54.62;99528.11;114048;1195;64455;-79
2021/04/25 05:08:01;;;;;;;18.95;8.05;;;;;;;5.00;54.65;99520.92;114178;1196;64352;-82
2021/04/25 05:10:27;;;;;;;19.45;8.35;;;;;;;5.06;54.81;99529.47;114082;1196;64384;-83
2021/04/25 05:12:54;;;;;;;24.50;9.55;;;;;;;5.14;54.25;99527.34;114141;1196;64467;-83
2021/04/25 05:15:20;;;;;;;23.95;9.30;;;;;;;5.23;54.37;99533.20;114117;1196;65577;-78
2021/04/25 05:17:47;;;;;;;21.85;8.95;;;;;;;5.35;54.58;99530.88;114085;1196;64497;-81
2021/04/25 05:20:14;;;;;;;22.27;8.03;;;;;;;5.48;54.27;99536.52;114164;1196;64391;-82
2021/04/25 05:22:40;;;;;;;19.90;8.70;;;;;;;5.55;54.71;99534.45;114137;1196;64385;-83
2021/04/25 05:25:08;;;;;;;24.15;9.70;;;;;;;5.56;54.38;99534.38;114051;1196;64458;-81
2021/04/25 05:27:35;;;;;;;19.30;9.17;;;;;;;5.63;54.68;99535.82;114123;1196;64378;-81
2021/04/25 05:30:03;;;;;;;25.87;9.67;;;;;;;5.66;54.35;99538.35;114157;1196;64471;-79
2021/04/25 05:32:30;;;;;;;21.37;9.80;;;;;;;5.71;54.51;99535.48;114108;1196;64356;-78
2021/04/25 05:34:56;;;;;;;24.03;8.27;;;;;;;5.73;54.11;99544.23;114093;1197;64529;-79
2021/04/25 05:37:24;;;;;;;17.47;7.83;;;;;;;5.73;54.22;99540.73;114078;1196;64375;-78
2021/04/25 05:39:51;;;;;;;20.57;9.10;;;;;;;5.79;54.54;99546.62;114062;1196;64410;-79
2021/04/25 05:42:17;;;;;;;23.35;9.20;;;;;;;5.86;54.04;99536.59;114070;1196;64455;-80
2021/04/25 05:44:44;;;;;;;18.33;8.33;;;;;;;5.89;54.22;99547.05;114077;1196;64680;-84
2021/04/25 05:47:10;;;;;;;18.00;8.00;;;;;;;5.92;54.12;99546.96;114042;1196;64467;-81
2021/04/25 05:49:37;;;;;;;17.80;7.80;;;;;;;5.91;54.50;99547.86;114129;1196;64349;-82
2021/04/25 05:52:04;;;;;;;18.43;7.30;;;;;;;5.96;53.71;99548.52;114108;1195;64355;-81
2021/04/25 05:54:30;;;;;;;15.50;7.70;;;;;;;6.02;54.09;99544.73;114108;1196;64481;-79
2021/04/25 05:56:57;;;;;;;15.00;6.70;;;;;;;6.06;53.35;99547.19;114144;1196;64458;-77
2021/04/25 05:59:23;;;;;;;13.05;6.45;;;;;;;6.07;53.41;99548.90;114029;1196;64551;-82
2021/04/25 06:01:50;;;;;;;13.27;5.97;;;;;;;6.14;53.95;99549.48;114140;1196;64395;-80
2021/04/25 06:04:17;;;;;;;11.25;6.55;;;;;;;6.25;53.60;99541.03;114052;1196;64555;-79
2021/04/25 06:06:43;;;;;;;16.27;6.23;;;;;;;6.34;53.32;99540.59;114098;1195;64423;-81
2021/04/25 06:09:10;;;;;;;13.57;6.00;;;;;;;6.36;53.56;99538.71;114076;1196;64397;-81
2021/04/25 06:11:36;;;;;;;9.65;5.45;;;;;;;6.37;53.16;99546.63;114117;1196;64510;-78
2021/04/25 06:14:06;;;;;;;7.50;4.45;;;;;;;6.45;53.64;99547.11;114101;1196;64324;-82
2021/04/25 06:16:33;;;;;;;8.10;4.37;;;;;;;6.49;53.31;99538.09;114118;1196;64409;-79
2021/04/25 06:19:03;;;;;;;6.70;3.87;;;;;;;6.62;52.97;99548.12;114122;1195;64435;-82
2021/04/25 06:21:30;;;;;;;7.50;3.60;;;;;;;6.57;52.36;99550.98;114105;1196;64368;-82
2021/04/25 06:23:57;;;;;;;8.40;3.70;;;;;;;6.56;52.12;99549.27;114097;1196;64369;-80
2021/04/25 06:26:23;;;;;;;7.33;3.10;;;;;;;6.61;52.29;99551.67;114034;1196;64356;-83
2021/04/25 06:28:50;;;;;;;6.33;3.30;;;;;;;6.68;52.36;99543.38;114005;1196;64481;-81
2021/04/25 06:31:17;;;;;;;8.80;3.97;;;;;;;6.73;52.09;99543.13;114140;1196;64359;-78
2021/04/25 06:33:46;;;;;;;12.20;4.60;;;;;;;6.72;52.25;99544.92;114122;1196;64347;-80
2021/04/25 06:36:13;;;;;;;11.90;4.70;;;;;;;6.77;52.08;99539.40;114047;1196;64477;-81
2021/04/25 06:38:39;;;;;;;11.33;3.90;;;;;;;6.74;51.46;99551.04;114057;1196;64394;-81
2021/04/25 06:41:06;;;;;;;6.80;3.20;;;;;;;6.74;51.51;99548.38;114130;1195;64445;-79
2021/04/25 06:43:33;;;;;;;11.75;3.15;;;;;;;6.74;51.49;99548.38;114121;1196;64397;-82
2021/04/25 06:46:01;;;;;;;9.85;3.10;;;;;;;6.82;51.26;99547.14;114062;1196;64828;-82
2021/04/25 06:48:28;;;;;;;8.80;4.80;;;;;;;6.82;50.80;99548.00;114079;1196;64497;-80
2021/04/25 06:50:55;;;;;;;9.03;4.13;;;;;;;6.83;50.92;99557.69;114057;1196;64387;-82
2021/04/25 06:53:21;;;;;;;6.37;3.17;;;;;;;6.94;51.35;99552.72;114087;1196;64471;-80
2021/04/25 06:55:48;;;;;;;5.50;2.67;;;;;;;7.03;50.92;99551.39;114103;1196;64371;-80
2021/04/25 06:58:16;;;;;;;7.73;3.97;;;;;;;7.03;50.50;99554.05;114130;1196;64452;-82
2021/04/25 07:00:42;;;;;;;9.80;4.20;;;;;;;7.07;50.98;99550.31;114099;1196;64554;-81
2021/04/25 07:03:10;;;;;;;6.00;2.80;;;;;;;7.22;51.08;99557.50;114249;1196;64311;-82
2021/04/25 07:05:38;;;;;;;6.03;3.50;;;;;;;7.35;50.80;99556.88;114152;1196;64396;-79
2021/04/25 07:08:08;;;;;;;5.33;2.93;;;;;;;7.41;50.99;99559.23;114084;1196;64417;-79
2021/04/25 07:10:36;;;;;;;6.23;3.17;;;;;;;7.57;50.83;99557.48;114062;1196;65978;-80
2021/04/25 07:13:03;;;;;;;5.33;3.03;;;;;;;7.79;50.36;99557.23;114050;1196;64500;-82
2021/04/25 07:15:30;;;;;;;6.53;4.00;;;;;;;7.95;50.63;99560.81;114100;1196;65690;-79
2021/04/25 07:17:58;;;;;;;7.50;3.30;;;;;;;8.08;50.46;99567.20;114127;1196;64410;-80
2021/04/25 07:20:26;;;;;;;7.67;3.47;;;;;;;8.28;50.45;99563.45;114112;1196;64459;-82
2021/04/25 07:22:52;;;;;;;9.27;4.20;;;;;;;8.41;49.77;99558.35;114017;1196;64407;-81
2021/04/25 07:25:19;;;;;;;8.87;4.20;;;;;;;8.52;50.57;99555.07;114005;1195;64363;-80
2021/04/25 07:27:46;;;;;;;9.07;4.37;;;;;;;8.82;50.39;99560.48;114093;1196;64417;-82
2021/04/25 07:30:14;;;;;;;9.13;3.63;;;;;;;8.90;49.31;99551.09;114030;1196;64401;-81
2021/04/25 07:32:41;;;;;;;5.90;2.60;;;;;;;8.81;49.46;99564.95;114119;1195;64458;-84
2021/04/25 07:35:10;;;;;;;9.60;3.10;;;;;;;8.74;50.15;99554.74;114127;1195;64345;-86
2021/04/25 07:37:37;;;;;;;8.70;4.00;;;;;;;8.76;49.27;99560.83;114122;1196;64442;-81
2021/04/25 07:40:05;;;;;;;14.83;2.70;;;;;;;8.64;49.28;99563.23;114053;1196;64436;-80
2021/04/25 07:42:33;;;;;;;6.25;2.75;;;;;;;8.69;49.83;99549.67;114101;1196;64369;-80
2021/04/25 07:45:00;;;;;;;8.50;3.95;;;;;;;8.56;49.53;99559.29;114096;1196;64388;-79
2021/04/25 07:47:27;;;;;;;6.87;3.30;;;;;;;8.43;49.43;99551.13;114112;1196;64343;-81
2021/04/25 07:49:54;;;;;;;7.40;2.73;;;;;;;8.47;49.57;99558.02;114100;1196;64323;-79
2021/04/25 07:52:21;;;;;;;5.20;2.45;;;;;;;8.66;50.00;99556.03;114235;1196;64371;-79
2021/04/25 07:54:48;;;;;;;5.95;2.30;;;;;;;8.79;50.24;99564.19;114088;1195;64372;-82
2021/04/25 07:57:15;;;;;;;4.00;2.27;;;;;;;9.01;49.43;99555.81;114103;1196;64305;-84
2021/04/25 07:59:42;;;;;;;6.80;1.97;;;;;;;9.17;49.52;99558.47;114217;1196;64320;-79
2021/04/25 08:02:09;;;;;;;5.57;2.10;;;;;;;9.41;49.37;99553.48;114104;1196;64449;-82
2021/04/25 08:04:36;;;;;;;7.17;2.57;;;;;;;9.42;49.20;99552.55;114109;1196;64352;-85
2021/04/25 08:07:03;;;;;;;6.60;2.35;;;;;;;9.46;48.71;99559.41;114106;1196;64390;-80
2021/04/25 08:09:29;;;;;;;4.87;2.07;;;;;;;9.53;48.83;99551.89;114059;1196;64436;-79
2021/04/25 08:11:56;;;;;;;11.33;2.40;;;;;;;9.71;49.14;99553.45;114128;1194;64298;-85
2021/04/25 08:14:23;;;;;;;4.70;2.80;;;;;;;9.87;47.40;99548.92;114003;1196;64570;-79
2021/04/25 08:16:49;;;;;;;6.40;2.97;;;;;;;9.87;48.32;99558.73;114096;1196;64455;-82
2021/04/25 08:19:16;;;;;;;6.20;2.80;;;;;;;10.11;48.98;99556.34;114064;1196;64337;-82
2021/04/25 08:21:43;;;;;;;4.20;1.95;;;;;;;10.34;48.79;99549.61;114023;1196;64362;-79
2021/04/25 08:24:10;;;;;;;6.53;1.93;;;;;;;10.36;47.77;99551.21;114016;1196;65898;-81
2021/04/25 08:26:38;;;;;;;4.95;2.25;;;;;;;10.19;48.29;99551.41;114099;1196;64481;-79
2021/04/25 08:29:05;;;;;;;2.93;2.00;;;;;;;10.27;48.36;99554.47;114104;1196;64522;-80
2021/04/25 08:31:31;;;;;;;3.25;1.70;;;;;;;10.44;47.49;99554.27;114096;1196;64359;-79
2021/04/25 08:33:58;;;;;;;4.73;2.10;;;;;;;10.49;47.84;99551.28;114088;1196;64324;-79
2021/04/25 08:36:24;;;;;;;4.50;2.03;;;;;;;10.70;48.80;99538.39;114057;1196;64334;-85
2021/04/25 08:38:51;;;;;;;3.60;2.30;;;;;;;10.76;47.16;99544.19;114078;1196;64318;-81
2021/04/25 08:41:20;;;;;;;2.75;2.00;;;;;;;10.50;46.66;99545.88;114111;1196;64359;-81
2021/04/25 08:43:49;;;;;;;14.30;6.40;;;;;;;10.55;47.23;99551.75;114204;1195;64330;-78
2021/04/25 08:46:18;;;;;;;135.53;56.90;;;;;;;10.73;47.62;99547.05;114148;1196;64356;-86
2021/04/25 08:48:49;;;;;;;4.90;2.55;;;;;;;10.86;47.06;99539.09;114246;1196;64838;-81
2021/04/25 08:51:18;;;;;;;5.90;1.87;;;;;;;10.75;45.52;99525.56;114154;1196;64503;-81
2021/04/25 08:53:47;;;;;;;16.73;8.73;;;;;;;10.85;47.51;99536.52;114187;1196;64442;-84
2021/04/25 08:56:14;;;;;;;3.83;2.00;;;;;;;11.32;46.05;99534.23;114171;1196;65577;-80
2021/04/25 08:58:46;;;;;;;5.57;2.37;;;;;;;11.49;46.21;99534.89;114071;1196;64429;-82
2021/04/25 09:01:12;;;;;;;3.95;2.30;;;;;;;11.55;46.03;99531.80;114164;1196;64390;-80
2021/04/25 09:03:40;;;;;;;3.90;2.00;;;;;;;11.92;45.78;99526.61;114106;1196;64403;-78
2021/04/25 09:06:11;;;;;;;3.87;2.07;;;;;;;12.24;46.14;99525.19;114198;1196;64361;-81
2021/04/25 09:09:00;;;;;;;3.80;2.05;;;;;;;12.18;46.25;99517.59;114198;1196;64362;-78
2021/04/25 09:11:40;;;;;;;13.07;5.37;;;;;;;12.06;46.28;99521.98;114226;1196;64742;-78
2021/04/25 09:14:36;;;;;;;10.17;5.40;;;;;;;12.14;46.06;99519.61;114143;1196;64356;-79
2021/04/25 09:17:05;;;;;;;6.40;4.53;;;;;;;12.12;45.46;99518.02;114412;1195;64321;-78
2021/04/25 09:20:07;;;;;;;17.43;11.97;;;;;;;11.73;45.88;99514.48;114337;1196;64292;-83
2021/04/25 09:22:52;;;;;;;6.30;3.40;;;;;;;11.58;46.23;99519.08;113856;1200;64378;-79
2021/04/25 09:25:22;;;;;;;4.25;2.80;;;;;;;11.82;46.10;99518.35;113982;1198;64474;-77
2021/04/25 09:27:53;;;;;;;3.30;2.20;;;;;;;11.98;45.56;99520.83;113969;1199;64343;-79
2021/04/25 09:30:26;;;;;;;5.63;3.40;;;;;;;11.80;44.84;99521.11;113814;1200;64522;-81
2021/04/25 09:33:06;;;;;;;5.33;3.23;;;;;;;11.71;45.67;99512.89;113932;1200;64490;-81
2021/04/25 09:35:33;;;;;;;3.53;2.73;;;;;;;11.67;45.57;99520.25;113783;1198;64484;-81
2021/04/25 09:38:10;;;;;;;3.60;1.87;;;;;;;11.55;44.84;99521.95;113744;1200;64423;-81
2021/04/25 09:40:42;;;;;;;3.15;2.00;;;;;;;11.34;45.14;99528.77;113854;1199;64298;-80
2021/04/25 09:43:12;;;;;;;7.30;3.37;;;;;;;11.41;45.26;99515.84;113872;1200;64490;-79
2021/04/25 09:45:45;;;;;;;4.85;2.05;;;;;;;11.58;45.52;99520.91;113900;1199;64353;-81
2021/04/25 09:48:30;;;;;;;6.20;2.00;;;;;;;11.66;45.39;99526.57;113957;1200;64343;-80
2021/04/25 09:51:21;;;;;;;7.37;3.23;;;;;;;11.59;43.63;99526.14;113742;1199;64339;-83
2021/04/25 09:53:56;;;;;;;4.77;1.67;;;;;;;11.51;44.94;99523.11;113965;1199;64378;-80
2021/04/25 09:56:35;;;;;;;3.63;1.50;;;;;;;12.06;45.15;99527.34;113976;1196;64503;-84
2021/04/25 09:59:07;;;;;;;4.83;1.70;;;;;;;12.54;43.78;99515.91;114194;1196;64462;-81
2021/04/25 10:01:42;;;;;;;5.20;1.93;;;;;;;12.64;43.29;99515.11;114140;1196;64388;-81
2021/04/25 10:04:36;;;;;;;2.20;1.63;;;;;;;12.67;43.79;99514.91;114120;1196;64372;-82
2021/04/25 10:07:06;;;;;;;3.00;1.67;;;;;;;12.69;44.23;99520.99;114146;1196;64362;-80
2021/04/25 10:09:35;;;;;;;3.30;2.20;;;;;;;12.75;44.88;99510.80;114216;1195;64459;-81
2021/04/25 10:12:03;;;;;;;14.40;8.77;;;;;;;12.77;43.17;99509.70;114195;1196;64423;-80
2021/04/25 10:14:33;;;;;;;6.20;2.43;;;;;;;12.47;42.89;99510.15;114361;1196;64525;-80
2021/04/25 10:17:03;;;;;;;8.30;2.00;;;;;;;12.26;44.27;99519.71;114225;1196;64365;-83
2021/04/25 10:19:31;;;;;;;1.40;1.30;;;;;;;12.23;44.25;99511.91;114238;1196;64359;-81
2021/04/25 10:22:24;;;;;;;3.90;2.13;;;;;;;12.24;44.34;99513.63;114192;1196;64394;-83
2021/04/25 10:24:51;;;;;;;5.20;1.60;;;;;;;12.70;44.28;99514.66;114056;1196;64560;-85
2021/04/25 10:27:24;;;;;;;3.73;1.70;;;;;;;13.29;43.32;99502.28;114053;1196;64420;-83
2021/04/25 10:29:59;;;;;;;2.63;1.80;;;;;;;13.30;43.23;99507.56;114145;1196;64477;-85
2021/04/25 10:32:27;;;;;;;4.10;1.50;;;;;;;13.10;43.60;99509.00;114106;1196;64374;-83
2021/04/25 10:35:20;;;;;;;8.63;4.83;;;;;;;12.98;43.07;99509.95;114118;1195;64497;-81
2021/04/25 10:37:49;;;;;;;7.13;4.80;;;;;;;12.32;42.54;99511.23;114083;1196;64419;-81
2021/04/25 10:40:22;;;;;;;3.65;2.90;;;;;;;11.98;43.27;99510.98;114131;1196;64321;-83
2021/04/25 10:43:01;;;;;;;4.87;2.20;;;;;;;12.29;43.99;99508.80;114163;1195;64394;-81
2021/04/25 10:45:35;;;;;;;4.60;1.80;;;;;;;12.67;43.07;99514.91;114082;1196;64433;-80
2021/04/25 10:48:18;;;;;;;5.83;1.97;;;;;;;12.98;43.08;99510.81;114094;1196;64397;-83
2021/04/25 10:50:47;;;;;;;3.50;1.90;;;;;;;13.30;43.21;99499.52;114100;1195;64343;-80
2021/04/25 10:53:23;;;;;;;3.37;1.70;;;;;;;13.70;43.14;99505.34;114116;1196;64433;-82
2021/04/25 10:56:20;;;;;;;2.93;1.60;;;;;;;13.67;42.21;99497.50;113919;1196;64416;-80
2021/04/25 10:59:08;;;;;;;2.20;1.60;;;;;;;13.18;41.89;99509.30;114326;1196;64375;-81
2021/04/25 11:01:39;;;;;;;3.57;1.70;;;;;;;12.90;42.63;99501.61;114224;1196;64529;-79
2021/04/25 11:04:07;;;;;;;3.17;2.30;;;;;;;12.68;42.71;99507.72;114159;1196;64400;-81
2021/04/25 11:06:37;;;;;;;3.05;1.60;;;;;;;12.93;42.04;99502.25;114108;1196;64503;-78
2021/04/25 11:09:04;;;;;;;2.63;1.70;;;;;;;12.84;42.32;99502.91;114104;1196;64448;-82
2021/04/25 11:11:39;;;;;;;4.73;2.10;;;;;;;13.05;41.44;99504.98;113873;1196;64365;-78
2021/04/25 11:14:08;;;;;;;35.55;27.30;;;;;;;13.19;42.64;99504.80;114168;1196;64375;-82
2021/04/25 11:16:38;;;;;;;19.85;17.85;;;;;;;13.09;41.74;99512.66;114242;1196;64435;-83
2021/04/25 11:19:12;;;;;;;8.63;7.60;;;;;;;12.40;41.07;99515.06;114147;1196;65980;-85
2021/04/25 11:21:42;;;;;;;10.20;7.48;;;;;;;12.04;42.39;99510.55;114178;1196;64535;-81
2021/04/25 11:24:08;;;;;;;3.55;2.30;;;;;;;12.18;40.43;99502.38;114260;1196;64323;-81
2021/04/25 11:29:10;;;;;;;2.90;1.90;;;;;;;12.31;42.04;99509.53;114131;1196;64366;-80
2021/04/25 11:31:47;;;;;;;6.73;2.60;;;;;;;12.94;42.08;99492.38;114247;1195;64446;-79
2021/04/25 11:36:55;;;;;;;3.20;2.20;;;;;;;13.53;40.74;99500.41;114219;1196;64288;-80
2021/04/25 11:39:47;;;;;;;4.43;3.00;;;;;;;13.37;41.44;99506.11;114290;1196;64481;-80